Grove City, Minnesota
Current Conditions -  °F | °C
As of 1:33 PM on Thursday 30 Oct 2014 (Local Time) from KLJF Reporting Station
Overcast Overcast  
Wind Chill: 42°   Ceiling: 3700
Heat Index: 46°   Visibility: 10mi
Dew Point: 39°   Wind: 9mph
Humidity: 76%   Direction: 10°N
Pressure: 30.13"   Gusts: NA
Location:  45.15°N, 94.68°W
Report Text: KLJF 301833Z AUTO 01008KT 10SM SCT030 OVC037 08/04 A3013 RMK AO2
Loading
Personal Weather Stations






























Interactive Weather Map
Tropical Storm Tracking
New forecast layout! Learn more

10-Day Weather Forecast

Advertisements
Track Severe Weather on mobile